Thargomindah, Australia
Current Conditions -  °F | °C
As of 11:00 PM on Monday 20 Oct 2014 (Local Time) from YBCV Reporting Station
Clear Clear  
Wind Chill: 25°   Ceiling: Unl
Heat Index: 25°   Visibility: 6mi
Dew Point:   Wind: 6mph
Humidity: 29%   Direction: 70°ENE
Pressure: 30.15"   Gusts: NA
Location:  28°S, 143.82°E
Report Text: YBCV 201300Z AUTO 07005KT 9999 // NCD 25/06 Q1021
Loading
Personal Weather Stations






























Interactive Weather Map
Tropical Storm Tracking
New forecast layout! Learn more

10-Day Weather Forecast

Advertisements
Track Severe Weather on mobile